sensor_id;sensor_type;location;lat;lon;timestamp;P1;durP1;ratioP1;P2;durP2;ratioP2
53525;SDS011;40551;50.478;19.378;2022-07-21T00:00:23;14.60;;;10.40;;
53525;SDS011;40551;50.478;19.378;2022-07-21T00:03:07;15.70;;;11.30;;
53525;SDS011;40551;50.478;19.378;2022-07-21T00:05:39;13.50;;;9.80;;
53525;SDS011;40551;50.478;19.378;2022-07-21T00:08:11;14.10;;;10.40;;
53525;SDS011;40551;50.478;19.378;2022-07-21T00:10:43;15.10;;;9.80;;
53525;SDS011;40551;50.478;19.378;2022-07-21T00:13:15;12.30;;;9.50;;
53525;SDS011;40551;50.478;19.378;2022-07-21T00:15:46;11.80;;;9.30;;
53525;SDS011;40551;50.478;19.378;2022-07-21T00:18:19;15.70;;;10.20;;
53525;SDS011;40551;50.478;19.378;2022-07-21T00:20:51;13.00;;;10.40;;
53525;SDS011;40551;50.478;19.378;2022-07-21T00:23:23;12.90;;;10.10;;
53525;SDS011;40551;50.478;19.378;2022-07-21T00:25:56;16.80;;;10.30;;
53525;SDS011;40551;50.478;19.378;2022-07-21T00:28:27;14.90;;;9.60;;
53525;SDS011;40551;50.478;19.378;2022-07-21T00:30:59;16.40;;;10.40;;
53525;SDS011;40551;50.478;19.378;2022-07-21T00:33:31;10.80;;;9.50;;
53525;SDS011;40551;50.478;19.378;2022-07-21T00:36:02;15.60;;;10.20;;
53525;SDS011;40551;50.478;19.378;2022-07-21T00:38:34;13.50;;;10.20;;
53525;SDS011;40551;50.478;19.378;2022-07-21T00:41:13;11.10;;;9.80;;
53525;SDS011;40551;50.478;19.378;2022-07-21T00:43:45;10.50;;;9.20;;
53525;SDS011;40551;50.478;19.378;2022-07-21T00:46:17;13.30;;;10.00;;
53525;SDS011;40551;50.478;19.378;2022-07-21T00:48:51;11.40;;;9.40;;
53525;SDS011;40551;50.478;19.378;2022-07-21T00:51:23;12.50;;;9.60;;
53525;SDS011;40551;50.478;19.378;2022-07-21T00:53:55;11.70;;;9.60;;
53525;SDS011;40551;50.478;19.378;2022-07-21T00:56:26;12.10;;;10.00;;
53525;SDS011;40551;50.478;19.378;2022-07-21T00:58:59;12.10;;;9.60;;
53525;SDS011;40551;50.478;19.378;2022-07-21T01:01:31;12.50;;;10.00;;
53525;SDS011;40551;50.478;19.378;2022-07-21T01:04:03;11.30;;;9.50;;
53525;SDS011;40551;50.478;19.378;2022-07-21T01:06:34;12.80;;;9.30;;
53525;SDS011;40551;50.478;19.378;2022-07-21T01:09:06;13.50;;;9.50;;
53525;SDS011;40551;50.478;19.378;2022-07-21T01:11:39;14.90;;;9.20;;
53525;SDS011;40551;50.478;19.378;2022-07-21T01:14:11;12.70;;;10.30;;
53525;SDS011;40551;50.478;19.378;2022-07-21T01:16:44;12.90;;;10.10;;
53525;SDS011;40551;50.478;19.378;2022-07-21T01:19:15;11.90;;;10.10;;
53525;SDS011;40551;50.478;19.378;2022-07-21T01:21:48;11.50;;;10.30;;
53525;SDS011;40551;50.478;19.378;2022-07-21T01:24:21;12.10;;;9.30;;
53525;SDS011;40551;50.478;19.378;2022-07-21T01:26:53;14.60;;;9.60;;
53525;SDS011;40551;50.478;19.378;2022-07-21T01:29:24;13.80;;;10.10;;
53525;SDS011;40551;50.478;19.378;2022-07-21T01:31:56;13.20;;;10.20;;
53525;SDS011;40551;50.478;19.378;2022-07-21T01:34:28;11.90;;;10.30;;
53525;SDS011;40551;50.478;19.378;2022-07-21T01:37:00;13.30;;;11.10;;
53525;SDS011;40551;50.478;19.378;2022-07-21T01:39:31;13.20;;;9.70;;
53525;SDS011;40551;50.478;19.378;2022-07-21T01:42:21;12.10;;;9.90;;
53525;SDS011;40551;50.478;19.378;2022-07-21T01:44:53;13.40;;;10.40;;
53525;SDS011;40551;50.478;19.378;2022-07-21T01:47:26;12.10;;;10.00;;
53525;SDS011;40551;50.478;19.378;2022-07-21T01:49:57;12.20;;;10.50;;
53525;SDS011;40551;50.478;19.378;2022-07-21T01:52:29;11.60;;;10.30;;
53525;SDS011;40551;50.478;19.378;2022-07-21T01:55:01;18.30;;;10.80;;
53525;SDS011;40551;50.478;19.378;2022-07-21T01:57:33;13.30;;;10.20;;
53525;SDS011;40551;50.478;19.378;2022-07-21T02:00:07;10.60;;;9.50;;
53525;SDS011;40551;50.478;19.378;2022-07-21T02:02:40;14.70;;;9.90;;
53525;SDS011;40551;50.478;19.378;2022-07-21T02:05:11;12.50;;;9.80;;
53525;SDS011;40551;50.478;19.378;2022-07-21T02:07:43;13.30;;;10.20;;
53525;SDS011;40551;50.478;19.378;2022-07-21T02:10:15;11.40;;;10.20;;
53525;SDS011;40551;50.478;19.378;2022-07-21T02:12:46;11.70;;;10.30;;
53525;SDS011;40551;50.478;19.378;2022-07-21T02:15:18;16.20;;;10.60;;
53525;SDS011;40551;50.478;19.378;2022-07-21T02:17:50;12.80;;;9.90;;
53525;SDS011;40551;50.478;19.378;2022-07-21T02:20:22;14.20;;;10.10;;
53525;SDS011;40551;50.478;19.378;2022-07-21T02:22:54;11.80;;;9.70;;
53525;SDS011;40551;50.478;19.378;2022-07-21T02:25:26;11.90;;;10.00;;
53525;SDS011;40551;50.478;19.378;2022-07-21T02:27:58;12.70;;;10.30;;
53525;SDS011;40551;50.478;19.378;2022-07-21T02:30:30;15.20;;;10.70;;
53525;SDS011;40551;50.478;19.378;2022-07-21T02:33:02;13.80;;;10.30;;
53525;SDS011;40551;50.478;19.378;2022-07-21T02:35:34;11.00;;;9.90;;
53525;SDS011;40551;50.478;19.378;2022-07-21T02:38:06;11.30;;;9.20;;
53525;SDS011;40551;50.478;19.378;2022-07-21T02:40:38;12.40;;;9.40;;
53525;SDS011;40551;50.478;19.378;2022-07-21T02:43:10;11.90;;;10.30;;
53525;SDS011;40551;50.478;19.378;2022-07-21T02:45:42;12.40;;;10.00;;
53525;SDS011;40551;50.478;19.378;2022-07-21T02:48:14;12.30;;;10.10;;
53525;SDS011;40551;50.478;19.378;2022-07-21T02:50:46;11.90;;;9.20;;
53525;SDS011;40551;50.478;19.378;2022-07-21T02:53:18;11.90;;;10.70;;
53525;SDS011;40551;50.478;19.378;2022-07-21T02:55:52;11.70;;;10.30;;
53525;SDS011;40551;50.478;19.378;2022-07-21T02:58:24;11.90;;;10.50;;
53525;SDS011;40551;50.478;19.378;2022-07-21T03:00:58;13.90;;;10.70;;
53525;SDS011;40551;50.478;19.378;2022-07-21T03:03:32;13.50;;;10.50;;
53525;SDS011;40551;50.478;19.378;2022-07-21T03:06:05;14.30;;;10.10;;
53525;SDS011;40551;50.478;19.378;2022-07-21T03:08:37;13.80;;;10.50;;
53525;SDS011;40551;50.478;19.378;2022-07-21T03:11:09;13.40;;;9.50;;
53525;SDS011;40551;50.478;19.378;2022-07-21T03:13:41;11.10;;;9.30;;
53525;SDS011;40551;50.478;19.378;2022-07-21T03:16:13;10.10;;;9.10;;
53525;SDS011;40551;50.478;19.378;2022-07-21T03:18:44;13.90;;;9.80;;
53525;SDS011;40551;50.478;19.378;2022-07-21T03:21:17;11.90;;;9.30;;
53525;SDS011;40551;50.478;19.378;2022-07-21T03:23:49;12.90;;;9.50;;
53525;SDS011;40551;50.478;19.378;2022-07-21T03:26:21;12.00;;;10.10;;
53525;SDS011;40551;50.478;19.378;2022-07-21T03:28:53;11.70;;;9.30;;
53525;SDS011;40551;50.478;19.378;2022-07-21T03:31:24;11.20;;;9.10;;
53525;SDS011;40551;50.478;19.378;2022-07-21T03:33:56;11.30;;;8.80;;
53525;SDS011;40551;50.478;19.378;2022-07-21T03:36:28;11.30;;;8.80;;
53525;SDS011;40551;50.478;19.378;2022-07-21T03:39:00;12.30;;;8.40;;
53525;SDS011;40551;50.478;19.378;2022-07-21T03:41:32;10.70;;;9.50;;
53525;SDS011;40551;50.478;19.378;2022-07-21T03:44:04;10.70;;;8.90;;
53525;SDS011;40551;50.478;19.378;2022-07-21T03:46:36;10.60;;;8.60;;
53525;SDS011;40551;50.478;19.378;2022-07-21T03:49:08;9.70;;;8.70;;
53525;SDS011;40551;50.478;19.378;2022-07-21T03:51:39;12.00;;;8.90;;
53525;SDS011;40551;50.478;19.378;2022-07-21T03:54:11;9.70;;;8.50;;
53525;SDS011;40551;50.478;19.378;2022-07-21T03:56:43;10.50;;;8.00;;
53525;SDS011;40551;50.478;19.378;2022-07-21T03:59:14;11.10;;;8.20;;
53525;SDS011;40551;50.478;19.378;2022-07-21T04:01:47;12.40;;;7.80;;
53525;SDS011;40551;50.478;19.378;2022-07-21T04:04:19;11.60;;;7.80;;
53525;SDS011;40551;50.478;19.378;2022-07-21T04:06:50;24.40;;;22.00;;
53525;SDS011;40551;50.478;19.378;2022-07-21T04:09:22;11.90;;;10.30;;
53525;SDS011;40551;50.478;19.378;2022-07-21T04:11:54;20.90;;;17.20;;
53525;SDS011;40551;50.478;19.378;2022-07-21T04:14:26;12.30;;;10.10;;
53525;SDS011;40551;50.478;19.378;2022-07-21T04:16:58;9.30;;;8.30;;
53525;SDS011;40551;50.478;19.378;2022-07-21T04:19:29;14.90;;;8.70;;
53525;SDS011;40551;50.478;19.378;2022-07-21T04:22:01;12.10;;;9.90;;
53525;SDS011;40551;50.478;19.378;2022-07-21T04:24:33;10.50;;;7.00;;
53525;SDS011;40551;50.478;19.378;2022-07-21T04:27:04;10.70;;;7.40;;
53525;SDS011;40551;50.478;19.378;2022-07-21T04:29:36;10.80;;;7.40;;
53525;SDS011;40551;50.478;19.378;2022-07-21T04:32:08;9.70;;;7.30;;
53525;SDS011;40551;50.478;19.378;2022-07-21T04:34:40;8.60;;;6.20;;
53525;SDS011;40551;50.478;19.378;2022-07-21T04:37:11;12.40;;;6.80;;
53525;SDS011;40551;50.478;19.378;2022-07-21T04:39:43;9.00;;;7.40;;
53525;SDS011;40551;50.478;19.378;2022-07-21T04:42:20;11.00;;;7.30;;
53525;SDS011;40551;50.478;19.378;2022-07-21T04:44:52;10.70;;;6.50;;
53525;SDS011;40551;50.478;19.378;2022-07-21T04:47:24;9.80;;;6.40;;
53525;SDS011;40551;50.478;19.378;2022-07-21T04:49:56;9.60;;;6.20;;
53525;SDS011;40551;50.478;19.378;2022-07-21T04:52:28;10.10;;;6.00;;
53525;SDS011;40551;50.478;19.378;2022-07-21T04:54:59;8.30;;;6.10;;
53525;SDS011;40551;50.478;19.378;2022-07-21T04:57:31;8.60;;;5.90;;
53525;SDS011;40551;50.478;19.378;2022-07-21T05:00:07;8.60;;;6.20;;
53525;SDS011;40551;50.478;19.378;2022-07-21T05:02:41;21.00;;;19.10;;
53525;SDS011;40551;50.478;19.378;2022-07-21T05:05:13;15.40;;;13.40;;
53525;SDS011;40551;50.478;19.378;2022-07-21T05:07:45;12.10;;;8.80;;
53525;SDS011;40551;50.478;19.378;2022-07-21T05:10:17;12.20;;;9.80;;
53525;SDS011;40551;50.478;19.378;2022-07-21T05:12:50;10.10;;;7.60;;
53525;SDS011;40551;50.478;19.378;2022-07-21T05:15:22;16.70;;;8.00;;
53525;SDS011;40551;50.478;19.378;2022-07-21T05:17:53;10.30;;;6.40;;
53525;SDS011;40551;50.478;19.378;2022-07-21T05:20:25;13.40;;;6.00;;
53525;SDS011;40551;50.478;19.378;2022-07-21T05:22:57;13.80;;;6.30;;
53525;SDS011;40551;50.478;19.378;2022-07-21T05:25:30;10.40;;;6.20;;
53525;SDS011;40551;50.478;19.378;2022-07-21T05:28:04;12.80;;;6.70;;
53525;SDS011;40551;50.478;19.378;2022-07-21T05:30:36;10.40;;;6.00;;
53525;SDS011;40551;50.478;19.378;2022-07-21T05:33:08;12.90;;;5.80;;
53525;SDS011;40551;50.478;19.378;2022-07-21T05:35:40;12.90;;;6.00;;
53525;SDS011;40551;50.478;19.378;2022-07-21T05:38:12;11.50;;;5.60;;
53525;SDS011;40551;50.478;19.378;2022-07-21T05:40:44;8.60;;;5.60;;
53525;SDS011;40551;50.478;19.378;2022-07-21T05:43:15;12.40;;;6.00;;
53525;SDS011;40551;50.478;19.378;2022-07-21T05:45:47;9.60;;;5.30;;
53525;SDS011;40551;50.478;19.378;2022-07-21T05:48:26;7.60;;;4.80;;
53525;SDS011;40551;50.478;19.378;2022-07-21T05:50:58;8.50;;;5.10;;
53525;SDS011;40551;50.478;19.378;2022-07-21T05:53:30;11.90;;;5.60;;
53525;SDS011;40551;50.478;19.378;2022-07-21T05:56:02;8.70;;;5.10;;
53525;SDS011;40551;50.478;19.378;2022-07-21T05:58:34;9.70;;;4.70;;
53525;SDS011;40551;50.478;19.378;2022-07-21T06:01:06;10.60;;;4.70;;
53525;SDS011;40551;50.478;19.378;2022-07-21T06:03:38;9.90;;;5.30;;
53525;SDS011;40551;50.478;19.378;2022-07-21T06:06:12;11.90;;;5.10;;
53525;SDS011;40551;50.478;19.378;2022-07-21T06:08:48;10.60;;;5.00;;
53525;SDS011;40551;50.478;19.378;2022-07-21T06:11:21;11.10;;;5.20;;
53525;SDS011;40551;50.478;19.378;2022-07-21T06:13:53;12.30;;;5.40;;
53525;SDS011;40551;50.478;19.378;2022-07-21T06:16:24;14.40;;;5.60;;
53525;SDS011;40551;50.478;19.378;2022-07-21T06:18:56;10.40;;;5.50;;
53525;SDS011;40551;50.478;19.378;2022-07-21T06:21:30;14.40;;;5.10;;
53525;SDS011;40551;50.478;19.378;2022-07-21T06:24:11;9.00;;;4.60;;
53525;SDS011;40551;50.478;19.378;2022-07-21T06:26:43;10.10;;;4.70;;
53525;SDS011;40551;50.478;19.378;2022-07-21T06:29:15;12.10;;;4.90;;
53525;SDS011;40551;50.478;19.378;2022-07-21T06:31:47;16.80;;;4.90;;
53525;SDS011;40551;50.478;19.378;2022-07-21T06:34:19;12.10;;;4.70;;
53525;SDS011;40551;50.478;19.378;2022-07-21T06:36:50;10.10;;;4.60;;
53525;SDS011;40551;50.478;19.378;2022-07-21T06:39:22;10.40;;;4.70;;
53525;SDS011;40551;50.478;19.378;2022-07-21T06:41:54;8.90;;;4.20;;
53525;SDS011;40551;50.478;19.378;2022-07-21T06:44:27;8.20;;;4.70;;
53525;SDS011;40551;50.478;19.378;2022-07-21T06:47:17;11.10;;;4.70;;
53525;SDS011;40551;50.478;19.378;2022-07-21T06:49:48;9.30;;;4.30;;
53525;SDS011;40551;50.478;19.378;2022-07-21T06:52:20;8.90;;;4.60;;
53525;SDS011;40551;50.478;19.378;2022-07-21T06:54:52;10.20;;;5.10;;
53525;SDS011;40551;50.478;19.378;2022-07-21T06:57:23;10.50;;;4.10;;
53525;SDS011;40551;50.478;19.378;2022-07-21T06:59:55;13.00;;;4.60;;
53525;SDS011;40551;50.478;19.378;2022-07-21T07:02:26;11.10;;;4.20;;
53525;SDS011;40551;50.478;19.378;2022-07-21T07:04:59;8.80;;;4.80;;
53525;SDS011;40551;50.478;19.378;2022-07-21T07:07:35;9.00;;;4.80;;
53525;SDS011;40551;50.478;19.378;2022-07-21T07:10:07;9.80;;;5.40;;
53525;SDS011;40551;50.478;19.378;2022-07-21T07:12:41;7.50;;;4.90;;
53525;SDS011;40551;50.478;19.378;2022-07-21T07:15:33;7.90;;;5.00;;
53525;SDS011;40551;50.478;19.378;2022-07-21T07:18:05;8.70;;;4.70;;
53525;SDS011;40551;50.478;19.378;2022-07-21T07:20:36;11.50;;;4.80;;
53525;SDS011;40551;50.478;19.378;2022-07-21T07:23:08;13.70;;;5.20;;
53525;SDS011;40551;50.478;19.378;2022-07-21T07:25:40;9.80;;;4.50;;
53525;SDS011;40551;50.478;19.378;2022-07-21T07:28:11;12.40;;;4.90;;
53525;SDS011;40551;50.478;19.378;2022-07-21T07:30:43;11.40;;;5.20;;
53525;SDS011;40551;50.478;19.378;2022-07-21T07:33:14;9.50;;;4.70;;
53525;SDS011;40551;50.478;19.378;2022-07-21T07:35:46;10.90;;;4.80;;
53525;SDS011;40551;50.478;19.378;2022-07-21T07:38:18;8.90;;;4.60;;
53525;SDS011;40551;50.478;19.378;2022-07-21T07:40:50;9.30;;;4.60;;
53525;SDS011;40551;50.478;19.378;2022-07-21T07:43:21;8.50;;;5.10;;
53525;SDS011;40551;50.478;19.378;2022-07-21T07:45:53;13.80;;;5.00;;
53525;SDS011;40551;50.478;19.378;2022-07-21T07:48:25;15.20;;;11.30;;
53525;SDS011;40551;50.478;19.378;2022-07-21T07:50:56;12.90;;;8.50;;
53525;SDS011;40551;50.478;19.378;2022-07-21T07:53:28;13.30;;;4.60;;
53525;SDS011;40551;50.478;19.378;2022-07-21T07:56:00;12.90;;;4.60;;
53525;SDS011;40551;50.478;19.378;2022-07-21T07:58:32;14.00;;;5.20;;
53525;SDS011;40551;50.478;19.378;2022-07-21T08:01:04;10.00;;;5.30;;
53525;SDS011;40551;50.478;19.378;2022-07-21T08:03:37;13.60;;;5.20;;
53525;SDS011;40551;50.478;19.378;2022-07-21T08:06:08;14.00;;;5.40;;
53525;SDS011;40551;50.478;19.378;2022-07-21T08:08:40;10.50;;;5.10;;
53525;SDS011;40551;50.478;19.378;2022-07-21T08:11:13;8.60;;;5.70;;
53525;SDS011;40551;50.478;19.378;2022-07-21T08:13:45;13.00;;;5.10;;
53525;SDS011;40551;50.478;19.378;2022-07-21T08:16:17;10.60;;;4.80;;
53525;SDS011;40551;50.478;19.378;2022-07-21T08:18:48;9.50;;;5.10;;
53525;SDS011;40551;50.478;19.378;2022-07-21T08:21:20;8.60;;;5.50;;
53525;SDS011;40551;50.478;19.378;2022-07-21T08:24:19;6.60;;;3.90;;
53525;SDS011;40551;50.478;19.378;2022-07-21T08:26:50;9.30;;;5.20;;
53525;SDS011;40551;50.478;19.378;2022-07-21T08:29:22;10.20;;;4.90;;
53525;SDS011;40551;50.478;19.378;2022-07-21T08:31:54;12.60;;;5.10;;
53525;SDS011;40551;50.478;19.378;2022-07-21T08:34:25;16.20;;;5.10;;
53525;SDS011;40551;50.478;19.378;2022-07-21T08:36:57;12.60;;;5.70;;
53525;SDS011;40551;50.478;19.378;2022-07-21T08:39:29;12.20;;;5.30;;
53525;SDS011;40551;50.478;19.378;2022-07-21T08:42:00;10.90;;;5.80;;
53525;SDS011;40551;50.478;19.378;2022-07-21T08:44:35;10.10;;;5.10;;
53525;SDS011;40551;50.478;19.378;2022-07-21T08:47:07;10.90;;;4.90;;
53525;SDS011;40551;50.478;19.378;2022-07-21T08:49:39;11.60;;;5.40;;
53525;SDS011;40551;50.478;19.378;2022-07-21T08:52:11;12.10;;;5.30;;
53525;SDS011;40551;50.478;19.378;2022-07-21T08:54:43;10.70;;;5.20;;
53525;SDS011;40551;50.478;19.378;2022-07-21T08:57:15;13.00;;;5.30;;
53525;SDS011;40551;50.478;19.378;2022-07-21T08:59:47;10.20;;;5.00;;
53525;SDS011;40551;50.478;19.378;2022-07-21T09:02:27;10.10;;;4.80;;
53525;SDS011;40551;50.478;19.378;2022-07-21T09:05:00;9.70;;;4.90;;
53525;SDS011;40551;50.478;19.378;2022-07-21T09:07:37;10.10;;;4.30;;
53525;SDS011;40551;50.478;19.378;2022-07-21T09:10:21;9.40;;;4.20;;
53525;SDS011;40551;50.478;19.378;2022-07-21T09:12:56;12.40;;;4.70;;
53525;SDS011;40551;50.478;19.378;2022-07-21T09:15:29;12.60;;;6.00;;
53525;SDS011;40551;50.478;19.378;2022-07-21T09:18:09;13.10;;;5.60;;
53525;SDS011;40551;50.478;19.378;2022-07-21T09:20:47;10.40;;;4.80;;
53525;SDS011;40551;50.478;19.378;2022-07-21T09:23:22;13.60;;;4.90;;
53525;SDS011;40551;50.478;19.378;2022-07-21T09:25:56;8.40;;;4.60;;
53525;SDS011;40551;50.478;19.378;2022-07-21T09:28:29;9.50;;;4.40;;
53525;SDS011;40551;50.478;19.378;2022-07-21T09:31:02;8.70;;;4.30;;
53525;SDS011;40551;50.478;19.378;2022-07-21T09:33:36;11.00;;;4.40;;
53525;SDS011;40551;50.478;19.378;2022-07-21T09:36:10;11.30;;;4.00;;
53525;SDS011;40551;50.478;19.378;2022-07-21T09:38:45;12.30;;;4.80;;
53525;SDS011;40551;50.478;19.378;2022-07-21T09:41:25;9.00;;;4.30;;
53525;SDS011;40551;50.478;19.378;2022-07-21T09:43:58;21.20;;;5.80;;
53525;SDS011;40551;50.478;19.378;2022-07-21T09:46:29;11.60;;;5.80;;
53525;SDS011;40551;50.478;19.378;2022-07-21T09:49:02;11.10;;;4.40;;
53525;SDS011;40551;50.478;19.378;2022-07-21T09:51:55;10.10;;;4.20;;
53525;SDS011;40551;50.478;19.378;2022-07-21T09:54:26;8.40;;;4.40;;
53525;SDS011;40551;50.478;19.378;2022-07-21T09:56:58;11.00;;;4.50;;
53525;SDS011;40551;50.478;19.378;2022-07-21T09:59:30;9.00;;;5.90;;
53525;SDS011;40551;50.478;19.378;2022-07-21T10:02:22;11.30;;;6.50;;
53525;SDS011;40551;50.478;19.378;2022-07-21T10:04:57;12.10;;;4.80;;
53525;SDS011;40551;50.478;19.378;2022-07-21T10:07:37;12.50;;;5.10;;
53525;SDS011;40551;50.478;19.378;2022-07-21T10:10:11;14.60;;;5.10;;
53525;SDS011;40551;50.478;19.378;2022-07-21T10:12:48;9.20;;;4.60;;
53525;SDS011;40551;50.478;19.378;2022-07-21T10:15:20;10.70;;;3.90;;
53525;SDS011;40551;50.478;19.378;2022-07-21T10:17:53;7.60;;;4.00;;
53525;SDS011;40551;50.478;19.378;2022-07-21T10:20:29;12.60;;;4.20;;
53525;SDS011;40551;50.478;19.378;2022-07-21T10:23:10;12.90;;;4.40;;
53525;SDS011;40551;50.478;19.378;2022-07-21T10:25:48;8.50;;;4.50;;
53525;SDS011;40551;50.478;19.378;2022-07-21T10:28:20;10.40;;;4.50;;
53525;SDS011;40551;50.478;19.378;2022-07-21T10:30:54;11.40;;;3.80;;
53525;SDS011;40551;50.478;19.378;2022-07-21T10:36:39;6.70;;;3.50;;
53525;SDS011;40551;50.478;19.378;2022-07-21T10:39:19;8.90;;;4.50;;
53525;SDS011;40551;50.478;19.378;2022-07-21T10:41:54;7.90;;;3.70;;
53525;SDS011;40551;50.478;19.378;2022-07-21T10:44:40;9.70;;;4.10;;
53525;SDS011;40551;50.478;19.378;2022-07-21T10:47:17;11.40;;;4.10;;
53525;SDS011;40551;50.478;19.378;2022-07-21T10:49:54;10.10;;;4.30;;
53525;SDS011;40551;50.478;19.378;2022-07-21T10:55:28;8.40;;;4.20;;
53525;SDS011;40551;50.478;19.378;2022-07-21T10:58:14;8.50;;;4.00;;
53525;SDS011;40551;50.478;19.378;2022-07-21T11:00:53;10.10;;;4.40;;
53525;SDS011;40551;50.478;19.378;2022-07-21T11:03:27;8.20;;;3.70;;
53525;SDS011;40551;50.478;19.378;2022-07-21T11:06:12;9.70;;;3.80;;
53525;SDS011;40551;50.478;19.378;2022-07-21T11:09:07;7.70;;;3.80;;
53525;SDS011;40551;50.478;19.378;2022-07-21T11:14:40;9.60;;;3.80;;
53525;SDS011;40551;50.478;19.378;2022-07-21T11:17:25;7.90;;;3.80;;
53525;SDS011;40551;50.478;19.378;2022-07-21T11:19:59;9.00;;;3.90;;
53525;SDS011;40551;50.478;19.378;2022-07-21T11:22:31;7.80;;;4.00;;
53525;SDS011;40551;50.478;19.378;2022-07-21T11:25:03;9.80;;;3.90;;
53525;SDS011;40551;50.478;19.378;2022-07-21T11:27:36;9.20;;;3.70;;
53525;SDS011;40551;50.478;19.378;2022-07-21T11:30:09;9.80;;;4.20;;
53525;SDS011;40551;50.478;19.378;2022-07-21T11:32:48;7.50;;;3.80;;
53525;SDS011;40551;50.478;19.378;2022-07-21T11:35:20;9.60;;;3.80;;
53525;SDS011;40551;50.478;19.378;2022-07-21T11:37:51;7.20;;;3.60;;
53525;SDS011;40551;50.478;19.378;2022-07-21T11:40:23;7.80;;;3.70;;
53525;SDS011;40551;50.478;19.378;2022-07-21T11:42:58;11.00;;;3.40;;
53525;SDS011;40551;50.478;19.378;2022-07-21T11:45:29;10.20;;;3.90;;
53525;SDS011;40551;50.478;19.378;2022-07-21T11:48:01;11.50;;;3.90;;
53525;SDS011;40551;50.478;19.378;2022-07-21T11:50:33;7.60;;;4.10;;
53525;SDS011;40551;50.478;19.378;2022-07-21T11:53:04;7.90;;;3.50;;
53525;SDS011;40551;50.478;19.378;2022-07-21T11:55:36;7.20;;;3.40;;
53525;SDS011;40551;50.478;19.378;2022-07-21T11:58:14;7.20;;;3.30;;
53525;SDS011;40551;50.478;19.378;2022-07-21T12:00:45;13.80;;;3.90;;
53525;SDS011;40551;50.478;19.378;2022-07-21T12:03:17;8.20;;;3.80;;
53525;SDS011;40551;50.478;19.378;2022-07-21T12:05:49;10.00;;;3.90;;
53525;SDS011;40551;50.478;19.378;2022-07-21T12:08:21;11.80;;;3.80;;
53525;SDS011;40551;50.478;19.378;2022-07-21T12:11:01;15.50;;;4.10;;
53525;SDS011;40551;50.478;19.378;2022-07-21T12:16:59;9.10;;;4.50;;
53525;SDS011;40551;50.478;19.378;2022-07-21T12:19:31;15.10;;;4.30;;
53525;SDS011;40551;50.478;19.378;2022-07-21T12:22:04;9.70;;;3.90;;
53525;SDS011;40551;50.478;19.378;2022-07-21T12:24:52;8.80;;;4.00;;
53525;SDS011;40551;50.478;19.378;2022-07-21T12:29:57;11.80;;;3.90;;
53525;SDS011;40551;50.478;19.378;2022-07-21T12:32:38;12.10;;;4.20;;
53525;SDS011;40551;50.478;19.378;2022-07-21T12:35:20;9.20;;;4.30;;
53525;SDS011;40551;50.478;19.378;2022-07-21T12:38:02;10.10;;;3.60;;
53525;SDS011;40551;50.478;19.378;2022-07-21T12:40:39;10.10;;;3.80;;
53525;SDS011;40551;50.478;19.378;2022-07-21T12:43:33;9.40;;;3.80;;
53525;SDS011;40551;50.478;19.378;2022-07-21T12:46:10;9.60;;;4.00;;
53525;SDS011;40551;50.478;19.378;2022-07-21T12:48:44;10.50;;;4.30;;
53525;SDS011;40551;50.478;19.378;2022-07-21T12:51:20;8.90;;;4.00;;
53525;SDS011;40551;50.478;19.378;2022-07-21T12:53:54;8.20;;;3.60;;
53525;SDS011;40551;50.478;19.378;2022-07-21T12:56:28;9.30;;;4.10;;
53525;SDS011;40551;50.478;19.378;2022-07-21T12:59:02;10.00;;;4.50;;
53525;SDS011;40551;50.478;19.378;2022-07-21T13:01:34;9.40;;;4.50;;
53525;SDS011;40551;50.478;19.378;2022-07-21T13:04:07;14.40;;;4.00;;
53525;SDS011;40551;50.478;19.378;2022-07-21T13:06:40;8.30;;;3.80;;
53525;SDS011;40551;50.478;19.378;2022-07-21T13:09:12;10.40;;;4.40;;
53525;SDS011;40551;50.478;19.378;2022-07-21T13:11:47;15.10;;;4.70;;
53525;SDS011;40551;50.478;19.378;2022-07-21T13:14:19;7.70;;;3.80;;
53525;SDS011;40551;50.478;19.378;2022-07-21T13:16:55;8.40;;;4.00;;
53525;SDS011;40551;50.478;19.378;2022-07-21T13:19:27;9.60;;;4.00;;
53525;SDS011;40551;50.478;19.378;2022-07-21T13:21:59;7.70;;;4.00;;
53525;SDS011;40551;50.478;19.378;2022-07-21T13:24:31;9.00;;;4.30;;
53525;SDS011;40551;50.478;19.378;2022-07-21T13:27:03;11.20;;;4.50;;
53525;SDS011;40551;50.478;19.378;2022-07-21T13:29:35;11.90;;;4.70;;
53525;SDS011;40551;50.478;19.378;2022-07-21T13:32:08;10.40;;;4.30;;
53525;SDS011;40551;50.478;19.378;2022-07-21T13:34:41;10.50;;;4.00;;
53525;SDS011;40551;50.478;19.378;2022-07-21T13:37:33;8.40;;;3.90;;
53525;SDS011;40551;50.478;19.378;2022-07-21T13:40:06;14.00;;;4.30;;
53525;SDS011;40551;50.478;19.378;2022-07-21T13:42:59;11.90;;;4.60;;
53525;SDS011;40551;50.478;19.378;2022-07-21T13:45:52;12.50;;;6.30;;
53525;SDS011;40551;50.478;19.378;2022-07-21T13:48:24;12.50;;;4.20;;
53525;SDS011;40551;50.478;19.378;2022-07-21T13:50:56;9.60;;;3.70;;
53525;SDS011;40551;50.478;19.378;2022-07-21T13:53:29;9.10;;;4.00;;
53525;SDS011;40551;50.478;19.378;2022-07-21T13:56:01;10.00;;;3.80;;
53525;SDS011;40551;50.478;19.378;2022-07-21T13:58:33;9.70;;;3.60;;
53525;SDS011;40551;50.478;19.378;2022-07-21T14:01:05;12.80;;;4.20;;
53525;SDS011;40551;50.478;19.378;2022-07-21T14:03:38;11.40;;;3.70;;
53525;SDS011;40551;50.478;19.378;2022-07-21T14:06:11;13.00;;;3.60;;
53525;SDS011;40551;50.478;19.378;2022-07-21T14:08:47;9.60;;;4.10;;
53525;SDS011;40551;50.478;19.378;2022-07-21T14:11:19;9.10;;;3.90;;
53525;SDS011;40551;50.478;19.378;2022-07-21T14:13:53;10.60;;;4.10;;
53525;SDS011;40551;50.478;19.378;2022-07-21T14:16:26;10.90;;;4.10;;
53525;SDS011;40551;50.478;19.378;2022-07-21T14:18:58;8.90;;;3.90;;
53525;SDS011;40551;50.478;19.378;2022-07-21T14:21:30;10.20;;;3.60;;
53525;SDS011;40551;50.478;19.378;2022-07-21T14:24:02;11.30;;;4.40;;
53525;SDS011;40551;50.478;19.378;2022-07-21T14:26:52;11.10;;;4.20;;
53525;SDS011;40551;50.478;19.378;2022-07-21T14:29:25;15.30;;;6.00;;
53525;SDS011;40551;50.478;19.378;2022-07-21T14:31:57;9.20;;;4.00;;
53525;SDS011;40551;50.478;19.378;2022-07-21T14:34:29;10.70;;;4.20;;
53525;SDS011;40551;50.478;19.378;2022-07-21T14:37:01;13.40;;;4.50;;
53525;SDS011;40551;50.478;19.378;2022-07-21T14:39:33;10.00;;;4.00;;
53525;SDS011;40551;50.478;19.378;2022-07-21T14:42:06;10.80;;;4.30;;
53525;SDS011;40551;50.478;19.378;2022-07-21T14:44:38;8.80;;;4.30;;
53525;SDS011;40551;50.478;19.378;2022-07-21T14:47:10;10.00;;;3.80;;
53525;SDS011;40551;50.478;19.378;2022-07-21T14:49:43;9.90;;;4.00;;
53525;SDS011;40551;50.478;19.378;2022-07-21T14:52:15;9.80;;;4.10;;
53525;SDS011;40551;50.478;19.378;2022-07-21T14:54:47;12.00;;;4.50;;
53525;SDS011;40551;50.478;19.378;2022-07-21T14:57:21;9.90;;;4.10;;
53525;SDS011;40551;50.478;19.378;2022-07-21T14:59:53;11.70;;;4.00;;
53525;SDS011;40551;50.478;19.378;2022-07-21T15:02:29;12.00;;;4.40;;
53525;SDS011;40551;50.478;19.378;2022-07-21T15:05:01;11.10;;;4.30;;
53525;SDS011;40551;50.478;19.378;2022-07-21T15:07:33;10.60;;;4.20;;
53525;SDS011;40551;50.478;19.378;2022-07-21T15:10:06;11.30;;;4.20;;
53525;SDS011;40551;50.478;19.378;2022-07-21T15:12:39;10.30;;;3.70;;
53525;SDS011;40551;50.478;19.378;2022-07-21T15:15:11;11.70;;;4.40;;